createdAt,value
2022-12-15T00:00:38.049Z,86.42
2022-12-15T00:06:20.297Z,86.50
2022-12-15T00:11:42.157Z,86.24
2022-12-15T00:17:04.123Z,86.36
2022-12-15T00:22:25.884Z,86.25
2022-12-15T00:27:47.900Z,86.10
2022-12-15T00:33:10.694Z,86.08
2022-12-15T00:38:34.214Z,85.98
2022-12-15T00:43:38.349Z,85.79
2022-12-15T00:48:42.071Z,85.61
2022-12-15T00:54:05.413Z,85.79
2022-12-15T00:59:27.795Z,85.94
2022-12-15T01:04:49.678Z,85.88
2022-12-15T01:10:11.566Z,85.82
2022-12-15T01:15:33.330Z,85.75
2022-12-15T01:20:36.295Z,85.94
2022-12-15T01:25:39.868Z,85.96
2022-12-15T01:30:42.848Z,86.82
2022-12-15T01:35:59.404Z,87.24
2022-12-15T01:41:07.268Z,87.54
2022-12-15T01:46:13.204Z,87.43
2022-12-15T01:51:31.679Z,87.44
2022-12-15T01:56:42.740Z,87.31
2022-12-15T02:01:49.879Z,87.48
2022-12-15T02:06:53.613Z,87.89
2022-12-15T02:12:24.392Z,87.53
2022-12-15T02:17:43.396Z,87.66
2022-12-15T02:23:36.273Z,87.71
2022-12-15T02:29:26.328Z,88.06
2022-12-15T02:34:55.161Z,87.60
2022-12-15T02:39:58.489Z,87.31
2022-12-15T02:45:16.255Z,88.08
2022-12-15T02:50:43.783Z,87.91
2022-12-15T02:56:27.395Z,87.90
2022-12-15T03:01:42.824Z,87.61
2022-12-15T03:06:57.380Z,87.67
2022-12-15T03:12:04.281Z,87.78
2022-12-15T03:17:07.680Z,87.78
2022-12-15T03:22:10.734Z,87.62
2022-12-15T03:27:14.094Z,87.72
2022-12-15T03:32:17.075Z,87.51
2022-12-15T03:37:20.121Z,87.56
2022-12-15T03:42:41.917Z,87.70
2022-12-15T03:47:46.258Z,87.78
2022-12-15T03:52:58.512Z,87.92
2022-12-15T03:58:01.604Z,87.77
2022-12-15T04:03:04.640Z,87.96
2022-12-15T04:08:07.792Z,88.04
2022-12-15T04:13:12.379Z,88.10
2022-12-15T04:18:15.388Z,88.23
2022-12-15T04:23:18.404Z,88.14
2022-12-15T04:28:40.454Z,87.97
2022-12-15T04:34:08.744Z,88.20
2022-12-15T04:39:30.630Z,88.32
2022-12-15T04:44:52.582Z,88.17
2022-12-15T04:50:14.496Z,87.93
2022-12-15T04:55:36.012Z,87.83
2022-12-15T05:00:57.652Z,87.80
2022-12-15T05:06:19.552Z,88.01
2022-12-15T05:11:41.362Z,88.06
2022-12-15T05:17:03.012Z,87.97
2022-12-15T05:22:24.412Z,88.14
2022-12-15T05:27:46.259Z,88.18
2022-12-15T05:32:49.770Z,88.14
2022-12-15T05:37:53.619Z,88.11
2022-12-15T05:42:59.706Z,88.24
2022-12-15T05:48:02.647Z,88.25
2022-12-15T05:53:05.727Z,88.25
2022-12-15T05:58:08.702Z,88.07
2022-12-15T06:03:11.650Z,87.72
2022-12-15T06:08:14.649Z,87.82
2022-12-15T06:13:17.605Z,88.46
2022-12-15T06:18:20.489Z,89.22
2022-12-15T06:23:23.531Z,89.79
2022-12-15T06:28:26.725Z,89.79
2022-12-15T06:33:31.292Z,89.98
2022-12-15T06:38:36.353Z,89.79
2022-12-15T06:43:39.953Z,89.46
2022-12-15T06:48:45.363Z,89.65
2022-12-15T06:53:54.379Z,89.86
2022-12-15T06:58:58.922Z,89.18
2022-12-15T07:04:05.003Z,89.38
2022-12-15T07:09:13.762Z,89.22
2022-12-15T07:14:16.721Z,87.79
2022-12-15T07:19:19.774Z,88.28
2022-12-15T07:24:22.782Z,87.96
2022-12-15T07:29:25.765Z,87.71
2022-12-15T07:34:28.702Z,87.76
2022-12-15T07:39:31.810Z,87.96
2022-12-15T07:44:34.783Z,87.80
2022-12-15T07:49:37.884Z,87.75
2022-12-15T07:54:41.281Z,87.86
2022-12-15T07:59:44.989Z,87.72
2022-12-15T08:04:48.218Z,87.21
2022-12-15T08:09:51.276Z,87.46
2022-12-15T08:14:54.208Z,87.16
2022-12-15T08:19:59.034Z,87.03
2022-12-15T08:25:02.060Z,87.29
2022-12-15T08:30:06.311Z,87.33
2022-12-15T08:35:31.786Z,87.36
2022-12-15T08:40:32.768Z,87.41
2022-12-15T08:45:35.801Z,87.46
2022-12-15T08:50:38.907Z,87.31
2022-12-15T08:55:41.840Z,87.29
2022-12-15T09:00:45.063Z,86.99
2022-12-15T09:05:48.079Z,87.09
2022-12-15T09:10:53.026Z,86.96
2022-12-15T09:16:10.940Z,86.48
2022-12-15T09:21:16.495Z,86.63
2022-12-15T09:26:22.578Z,86.53
2022-12-15T09:31:29.007Z,86.36
2022-12-15T09:36:33.226Z,86.65
2022-12-15T09:41:36.890Z,86.73
2022-12-15T09:46:51.797Z,86.36
2022-12-15T09:52:11.465Z,86.48
2022-12-15T09:57:27.527Z,85.72
2022-12-15T10:03:21.467Z,86.11
2022-12-15T10:08:35.417Z,85.54
2022-12-15T10:13:50.294Z,85.77
2022-12-15T10:19:38.239Z,86.24
2022-12-15T10:30:09.900Z,85.88
2022-12-15T10:35:22.023Z,85.96
2022-12-15T10:40:54.989Z,86.19
2022-12-15T10:46:02.740Z,86.36
2022-12-15T10:51:21.444Z,86.28
2022-12-15T10:56:33.301Z,86.18
2022-12-15T11:01:37.480Z,86.35
2022-12-15T11:06:42.920Z,86.30
2022-12-15T11:12:12.234Z,86.42
2022-12-15T11:17:22.745Z,86.46
2022-12-15T11:22:51.965Z,86.47
2022-12-15T11:27:59.360Z,86.65
2022-12-15T11:33:03.353Z,86.75
2022-12-15T11:38:26.264Z,86.66
2022-12-15T11:43:54.441Z,86.78
2022-12-15T11:55:41.198Z,86.59
2022-12-15T12:00:55.651Z,86.32
2022-12-15T12:06:12.443Z,86.40
2022-12-15T12:11:25.306Z,86.64
2022-12-15T12:16:37.591Z,86.76
2022-12-15T12:21:51.326Z,86.68
2022-12-15T12:27:07.311Z,86.57
2022-12-15T12:32:28.670Z,86.58
2022-12-15T12:37:37.826Z,86.51
2022-12-15T12:43:00.031Z,86.28
2022-12-15T12:48:30.098Z,86.19
2022-12-15T12:53:35.259Z,86.38
2022-12-15T12:58:41.572Z,86.42
2022-12-15T13:03:45.480Z,86.57
2022-12-15T13:08:53.635Z,86.53
2022-12-15T13:13:57.159Z,86.48
2022-12-15T13:19:08.553Z,86.53
2022-12-15T13:24:34.852Z,86.50
2022-12-15T13:30:09.080Z,86.50
2022-12-15T13:35:14.832Z,86.58
2022-12-15T13:40:52.295Z,86.43
2022-12-15T13:46:00.520Z,86.38
2022-12-15T13:51:09.603Z,86.43
2022-12-15T13:56:12.524Z,86.39
2022-12-15T14:01:51.045Z,86.50
2022-12-15T14:07:00.045Z,86.57
2022-12-15T14:12:07.840Z,86.55
2022-12-15T14:17:16.667Z,86.51
2022-12-15T14:22:30.529Z,86.50
2022-12-15T14:27:34.466Z,86.60
2022-12-15T14:32:38.384Z,86.56
2022-12-15T14:37:41.824Z,86.57
2022-12-15T14:42:47.087Z,86.67
2022-12-15T14:48:30.429Z,86.76
2022-12-15T14:53:23.412Z,86.82
2022-12-15T14:58:36.235Z,86.75
2022-12-15T15:03:09.223Z,86.73
2022-12-15T15:03:41.438Z,86.69
2022-12-15T15:08:52.715Z,86.74
2022-12-15T15:14:23.050Z,86.69
2022-12-15T15:19:26.229Z,86.69
2022-12-15T15:24:37.625Z,86.79
2022-12-15T15:29:41.540Z,86.79
2022-12-15T15:34:47.006Z,86.74
2022-12-15T15:39:55.713Z,86.74
2022-12-15T15:44:58.869Z,86.75
2022-12-15T15:50:01.944Z,86.79
2022-12-15T15:55:06.002Z,86.74
2022-12-15T16:00:22.756Z,86.74
2022-12-15T16:05:25.778Z,86.76
2022-12-15T16:10:30.375Z,86.76
2022-12-15T16:15:33.646Z,86.68
2022-12-15T16:20:39.011Z,86.65
2022-12-15T16:26:02.219Z,86.57
2022-12-15T16:31:05.623Z,86.53
2022-12-15T16:36:15.011Z,86.56
2022-12-15T16:41:18.829Z,86.54
2022-12-15T16:46:22.122Z,86.65
2022-12-15T16:51:46.289Z,86.72
2022-12-15T16:56:49.932Z,86.83
2022-12-15T17:01:56.624Z,86.82
2022-12-15T17:06:59.835Z,86.85
2022-12-15T17:12:02.891Z,86.89
2022-12-15T17:17:18.048Z,87.08
2022-12-15T17:22:22.176Z,87.19
2022-12-15T17:27:29.822Z,87.13
2022-12-15T17:32:33.329Z,87.08
2022-12-15T17:37:36.540Z,87.11
2022-12-15T17:42:39.859Z,87.19
2022-12-15T17:47:43.654Z,87.31
2022-12-15T17:52:48.789Z,87.24
2022-12-15T17:57:55.612Z,87.13
2022-12-15T18:03:01.215Z,87.10
2022-12-15T18:08:16.448Z,87.08
2022-12-15T18:13:22.454Z,87.11
2022-12-15T18:18:26.370Z,87.07
2022-12-15T18:23:32.253Z,87.03
2022-12-15T18:28:36.073Z,87.01
2022-12-15T18:33:39.037Z,87.09
2022-12-15T18:38:42.875Z,87.21
2022-12-15T18:43:47.744Z,87.15
2022-12-15T18:48:50.700Z,87.04
2022-12-15T18:53:53.775Z,87.00
2022-12-15T18:58:56.804Z,86.81
2022-12-15T19:03:59.772Z,86.68
2022-12-15T19:09:06.196Z,86.69
2022-12-15T19:14:36.742Z,86.63
2022-12-15T19:20:09.196Z,86.64
2022-12-15T19:25:28.355Z,86.60
2022-12-15T19:30:38.569Z,86.60
2022-12-15T19:35:50.451Z,86.50
2022-12-15T19:40:55.997Z,86.37
2022-12-15T19:45:59.116Z,86.38
2022-12-15T19:51:02.335Z,86.33
2022-12-15T19:56:05.773Z,86.31
2022-12-15T20:01:14.964Z,86.32
2022-12-15T20:06:26.824Z,86.20
2022-12-15T20:11:32.897Z,86.25
2022-12-15T20:16:35.928Z,86.18
2022-12-15T20:21:41.318Z,86.19
2022-12-15T20:26:46.150Z,86.17
2022-12-15T20:31:49.354Z,86.11
2022-12-15T20:36:52.794Z,85.83
2022-12-15T20:41:57.127Z,85.79
2022-12-15T20:47:00.237Z,85.60
2022-12-15T20:52:03.899Z,85.65
2022-12-15T20:57:07.310Z,85.61
2022-12-15T21:02:23.978Z,85.63
2022-12-15T21:07:27.227Z,85.57
2022-12-15T21:12:30.202Z,85.50
2022-12-15T21:17:37.386Z,85.53
2022-12-15T21:22:43.442Z,85.56
2022-12-15T21:27:46.631Z,85.56
2022-12-15T21:32:50.985Z,85.44
2022-12-15T21:37:54.905Z,85.39
2022-12-15T21:42:58.628Z,85.42
2022-12-15T21:48:20.258Z,85.29
2022-12-15T21:53:23.987Z,85.52
2022-12-15T21:58:28.114Z,85.42
2022-12-15T22:03:31.066Z,85.19
2022-12-15T22:08:34.511Z,84.96
2022-12-15T22:13:39.382Z,85.01
2022-12-15T22:18:42.809Z,85.09
2022-12-15T22:23:48.063Z,85.11
2022-12-15T22:28:51.610Z,85.05
2022-12-15T22:33:55.296Z,84.96
2022-12-15T22:39:01.615Z,84.86
2022-12-15T22:44:26.503Z,84.92
2022-12-15T22:49:36.346Z,84.71
2022-12-15T22:54:42.661Z,84.74
2022-12-15T23:00:06.153Z,84.76
2022-12-15T23:05:13.791Z,84.89
2022-12-15T23:10:39.623Z,84.78
2022-12-15T23:16:01.330Z,84.65
2022-12-15T23:21:04.846Z,84.62
2022-12-15T23:26:07.954Z,84.65
2022-12-15T23:31:12.349Z,84.61
2022-12-15T23:36:15.325Z,84.76
2022-12-15T23:41:18.649Z,84.67
2022-12-15T23:46:21.631Z,84.65
2022-12-15T23:51:24.808Z,84.66
2022-12-15T23:56:27.787Z,84.59
